Time;durP1;ratioP1;P1;durP2;ratioP2;P2;SDS_P1;SDS_P2;PMS_P1;PMS_P2;Temp;Humidity;BMP_temperature;BMP_pressure;BME280_temperature;BME280_humidity;BME280_pressure;Samples;Min_cycle;Max_cycle;Signal;HPM_P1;HPM_P2
2021/08/31 00:01:33;;;;;;;3.47;2.85;;;;;;;;;;4969692;28;20079;-68
2021/08/31 00:03:59;;;;;;;4.38;2.67;;;;;;;;;;4957036;28;20110;-68
2021/08/31 00:06:25;;;;;;;4.20;2.80;;;;;;;;;;4958256;28;20034;-67
2021/08/31 00:08:51;;;;;;;5.03;2.60;;;;;;;;;;4982504;28;20022;-68
2021/08/31 00:11:17;;;;;;;5.63;2.80;;;;;;;;;;4967392;28;20055;-68
2021/08/31 00:13:44;;;;;;;4.68;2.42;;;;;;;;;;4973238;28;20031;-68
2021/08/31 00:16:10;;;;;;;3.47;2.50;;;;;;;;;;4966796;28;20030;-68
2021/08/31 00:18:36;;;;;;;4.90;2.35;;;;;;;;;;4968677;28;20046;-69
2021/08/31 00:21:05;;;;;;;3.97;2.60;;;;;;;;;;4972949;28;20015;-67
2021/08/31 00:23:31;;;;;;;3.05;2.58;;;;;;;;;;4977373;28;20532;-70
2021/08/31 00:25:57;;;;;;;4.45;2.78;;;;;;;;;;4965225;28;20030;-69
2021/08/31 00:28:24;;;;;;;2.85;2.40;;;;;;;;;;4966730;28;20113;-69
2021/08/31 00:30:50;;;;;;;3.10;2.80;;;;;;;;;;4973784;28;20022;-69
2021/08/31 00:33:18;;;;;;;7.65;2.63;;;;;;;;;;4971523;28;20031;-67
2021/08/31 00:35:44;;;;;;;3.88;2.85;;;;;;;;;;4973447;28;20154;-68
2021/08/31 00:38:11;;;;;;;4.95;2.88;;;;;;;;;;4972370;28;20121;-69
2021/08/31 00:40:37;;;;;;;3.75;2.70;;;;;;;;;;4973196;28;20023;-68
2021/08/31 00:43:03;;;;;;;3.83;2.70;;;;;;;;;;4972324;28;20031;-69
2021/08/31 00:45:29;;;;;;;5.50;2.65;;;;;;;;;;4973298;28;20114;-67
2021/08/31 00:47:56;;;;;;;5.10;2.83;;;;;;;;;;4972045;28;20027;-68
2021/08/31 00:50:22;;;;;;;3.13;2.78;;;;;;;;;;4964223;28;20042;-68
2021/08/31 00:52:49;;;;;;;3.33;2.75;;;;;;;;;;4973909;28;20034;-69
2021/08/31 00:55:15;;;;;;;5.18;2.97;;;;;;;;;;4972609;28;20043;-68
2021/08/31 00:57:42;;;;;;;20.02;3.28;;;;;;;;;;4972024;28;20085;-68
2021/08/31 01:00:09;;;;;;;3.13;2.80;;;;;;;;;;4971130;28;20123;-66
2021/08/31 01:02:36;;;;;;;7.40;2.83;;;;;;;;;;4968645;28;20034;-69
2021/08/31 01:05:03;;;;;;;6.78;3.80;;;;;;;;;;4976042;28;20015;-69
2021/08/31 01:07:29;;;;;;;4.50;2.85;;;;;;;;;;4977073;28;20114;-68
2021/08/31 01:09:59;;;;;;;4.43;2.95;;;;;;;;;;4969579;28;20540;-68
2021/08/31 01:12:27;;;;;;;5.50;3.10;;;;;;;;;;4975709;28;20045;-67
2021/08/31 01:14:53;;;;;;;6.15;3.20;;;;;;;;;;4976652;28;20484;-68
2021/08/31 01:17:19;;;;;;;5.57;3.00;;;;;;;;;;4962675;28;20038;-68
2021/08/31 01:19:45;;;;;;;3.75;3.03;;;;;;;;;;4977065;28;20039;-67
2021/08/31 01:22:14;;;;;;;3.10;2.80;;;;;;;;;;4986321;28;20042;-68
2021/08/31 01:24:42;;;;;;;5.88;3.10;;;;;;;;;;4982791;28;20031;-70
2021/08/31 01:27:13;;;;;;;3.88;2.70;;;;;;;;;;4964007;28;20035;-69
2021/08/31 01:29:40;;;;;;;4.63;2.72;;;;;;;;;;4984360;28;20033;-67
2021/08/31 01:32:07;;;;;;;3.42;2.72;;;;;;;;;;4981675;28;20448;-67
2021/08/31 01:34:33;;;;;;;4.28;2.53;;;;;;;;;;4976346;28;20023;-68
2021/08/31 01:36:59;;;;;;;4.75;2.67;;;;;;;;;;4972712;28;20035;-66
2021/08/31 01:39:26;;;;;;;3.90;2.92;;;;;;;;;;4969641;28;20030;-67
2021/08/31 01:41:52;;;;;;;5.28;2.83;;;;;;;;;;4977029;28;20026;-66
2021/08/31 01:44:18;;;;;;;4.28;3.10;;;;;;;;;;4976335;28;20046;-68
2021/08/31 01:46:44;;;;;;;4.20;2.90;;;;;;;;;;4955992;28;20035;-69
2021/08/31 01:49:10;;;;;;;4.18;3.33;;;;;;;;;;4958743;28;20393;-67
2021/08/31 01:51:41;;;;;;;3.42;2.88;;;;;;;;;;4977081;28;20034;-68
2021/08/31 01:54:08;;;;;;;3.85;3.17;;;;;;;;;;4974691;28;20401;-69
2021/08/31 01:56:34;;;;;;;3.00;2.70;;;;;;;;;;4989649;28;20037;-69
2021/08/31 01:59:01;;;;;;;3.45;2.80;;;;;;;;;;4974766;28;20117;-68
2021/08/31 02:01:27;;;;;;;6.32;2.83;;;;;;;;;;4975795;28;20031;-69
2021/08/31 02:03:53;;;;;;;5.65;2.97;;;;;;;;;;4968029;28;20065;-68
2021/08/31 02:06:23;;;;;;;4.80;2.72;;;;;;;;;;4976988;28;20023;-69
2021/08/31 02:08:49;;;;;;;5.55;2.70;;;;;;;;;;4977766;28;20046;-69
2021/08/31 02:11:15;;;;;;;2.83;2.50;;;;;;;;;;4974893;28;20042;-69
2021/08/31 02:13:50;;;;;;;4.30;2.97;;;;;;;;;;4977974;28;20101;-69
2021/08/31 02:16:18;;;;;;;4.65;2.78;;;;;;;;;;4967795;28;20481;-69
2021/08/31 02:18:44;;;;;;;5.00;2.60;;;;;;;;;;4971031;28;20508;-67
2021/08/31 02:21:10;;;;;;;4.18;2.97;;;;;;;;;;4971700;28;20030;-69
2021/08/31 02:23:39;;;;;;;4.22;2.90;;;;;;;;;;4969878;28;20125;-68
2021/08/31 02:26:07;;;;;;;4.18;2.70;;;;;;;;;;4979987;28;20023;-69
2021/08/31 02:28:34;;;;;;;5.38;3.00;;;;;;;;;;4977591;28;20409;-69
2021/08/31 02:31:00;;;;;;;3.38;2.80;;;;;;;;;;4971662;28;20027;-69
2021/08/31 02:33:26;;;;;;;3.30;2.90;;;;;;;;;;4954971;28;20366;-69
2021/08/31 02:35:52;;;;;;;4.78;2.80;;;;;;;;;;4972862;28;20053;-69
2021/08/31 02:38:18;;;;;;;4.45;3.05;;;;;;;;;;4975796;28;20363;-69
2021/08/31 02:40:59;;;;;;;5.43;2.72;;;;;;;;;;4976317;28;20035;-70
2021/08/31 02:43:25;;;;;;;4.60;3.15;;;;;;;;;;4962863;28;20054;-68
2021/08/31 02:45:51;;;;;;;5.13;2.90;;;;;;;;;;4975129;28;20027;-68
2021/08/31 02:48:19;;;;;;;4.20;2.90;;;;;;;;;;4976180;28;20030;-69
2021/08/31 02:50:46;;;;;;;7.85;3.17;;;;;;;;;;4971571;28;20437;-69
2021/08/31 02:53:12;;;;;;;6.25;3.30;;;;;;;;;;4975918;28;20046;-69
2021/08/31 02:55:38;;;;;;;5.35;3.53;;;;;;;;;;4975346;28;20066;-69
2021/08/31 02:58:04;;;;;;;5.15;3.65;;;;;;;;;;4974649;28;20038;-69
2021/08/31 03:00:31;;;;;;;6.60;3.13;;;;;;;;;;4973527;28;20029;-69
2021/08/31 03:02:58;;;;;;;5.07;2.92;;;;;;;;;;4954356;28;20042;-68
2021/08/31 03:05:24;;;;;;;6.18;3.13;;;;;;;;;;4975358;28;20022;-69
2021/08/31 03:07:52;;;;;;;4.50;3.03;;;;;;;;;;4974747;28;20043;-67
2021/08/31 03:10:18;;;;;;;6.35;3.00;;;;;;;;;;4975003;28;20375;-69
2021/08/31 03:12:44;;;;;;;5.75;4.50;;;;;;;;;;4974742;28;20385;-69
2021/08/31 03:15:11;;;;;;;19.20;17.30;;;;;;;;;;4964742;28;20039;-69
2021/08/31 03:17:41;;;;;;;30.52;27.52;;;;;;;;;;4959113;28;20232;-68
2021/08/31 03:20:10;;;;;;;34.10;30.45;;;;;;;;;;4965249;28;20086;-68
2021/08/31 03:22:36;;;;;;;26.02;22.70;;;;;;;;;;4974535;28;20175;-68
2021/08/31 03:25:02;;;;;;;34.13;27.80;;;;;;;;;;4972730;28;20508;-69
2021/08/31 03:27:28;;;;;;;48.03;37.72;;;;;;;;;;4973797;28;20106;-69
2021/08/31 03:29:54;;;;;;;42.85;32.85;;;;;;;;;;4974648;28;20072;-69
2021/08/31 03:32:20;;;;;;;39.35;27.30;;;;;;;;;;4972756;28;20035;-68
2021/08/31 03:34:46;;;;;;;27.73;20.40;;;;;;;;;;4959552;28;20086;-69
2021/08/31 03:37:12;;;;;;;16.40;13.07;;;;;;;;;;4974124;28;20083;-68
2021/08/31 03:39:39;;;;;;;11.90;9.93;;;;;;;;;;4969924;28;20090;-69
2021/08/31 03:42:05;;;;;;;11.13;7.75;;;;;;;;;;4967033;28;20027;-69
2021/08/31 03:44:31;;;;;;;7.53;5.97;;;;;;;;;;4974197;28;20023;-69
2021/08/31 03:46:57;;;;;;;8.07;6.20;;;;;;;;;;4973267;28;20515;-69
2021/08/31 03:49:23;;;;;;;9.02;5.70;;;;;;;;;;4944545;28;20043;-69
2021/08/31 03:51:49;;;;;;;7.82;5.80;;;;;;;;;;4974093;28;20015;-68
2021/08/31 03:54:15;;;;;;;6.68;5.60;;;;;;;;;;4974140;28;20038;-69
2021/08/31 03:56:42;;;;;;;8.38;5.18;;;;;;;;;;4969463;28;20042;-69
2021/08/31 03:59:08;;;;;;;7.32;5.10;;;;;;;;;;4966409;28;20039;-69
2021/08/31 04:01:34;;;;;;;8.60;5.40;;;;;;;;;;4967688;28;20031;-69
2021/08/31 04:04:00;;;;;;;13.75;5.40;;;;;;;;;;4970263;28;20416;-69
2021/08/31 04:06:26;;;;;;;8.02;4.82;;;;;;;;;;4969722;28;20401;-69
2021/08/31 04:08:53;;;;;;;6.95;5.35;;;;;;;;;;4971277;28;20027;-69
2021/08/31 04:11:19;;;;;;;7.45;5.72;;;;;;;;;;4972940;28;20033;-68
2021/08/31 04:13:45;;;;;;;10.45;5.35;;;;;;;;;;4940835;28;20489;-69
2021/08/31 04:16:11;;;;;;;8.07;5.30;;;;;;;;;;4958365;28;20102;-69
2021/08/31 04:18:37;;;;;;;9.15;5.68;;;;;;;;;;4967892;28;20498;-69
2021/08/31 04:21:03;;;;;;;6.88;4.97;;;;;;;;;;4971782;28;20462;-69
2021/08/31 04:23:29;;;;;;;8.82;5.10;;;;;;;;;;4972869;28;20047;-68
2021/08/31 04:25:55;;;;;;;8.15;5.30;;;;;;;;;;4973177;28;20026;-69
2021/08/31 04:28:21;;;;;;;9.40;5.55;;;;;;;;;;4968676;28;20409;-67
2021/08/31 04:30:47;;;;;;;10.77;5.72;;;;;;;;;;4967068;28;20031;-62
2021/08/31 04:33:13;;;;;;;10.50;5.40;;;;;;;;;;4973485;28;20018;-65
2021/08/31 04:35:40;;;;;;;6.65;5.47;;;;;;;;;;4974261;28;20497;-66
2021/08/31 04:38:06;;;;;;;8.48;5.25;;;;;;;;;;4972759;28;20062;-66
2021/08/31 04:40:32;;;;;;;8.38;5.22;;;;;;;;;;4966912;28;20366;-70
2021/08/31 04:42:58;;;;;;;7.85;5.60;;;;;;;;;;4972077;28;20027;-71
2021/08/31 04:45:24;;;;;;;6.95;5.68;;;;;;;;;;4973205;28;20114;-66
2021/08/31 04:47:50;;;;;;;8.05;5.90;;;;;;;;;;4968553;28;20377;-61
2021/08/31 04:50:16;;;;;;;9.75;6.45;;;;;;;;;;4967828;28;20828;-73
2021/08/31 04:52:42;;;;;;;10.48;7.28;;;;;;;;;;4971528;28;20027;-70
2021/08/31 04:55:09;;;;;;;11.95;7.88;;;;;;;;;;4971029;28;20496;-62
2021/08/31 04:57:36;;;;;;;12.82;8.27;;;;;;;;;;4965446;28;20039;-68
2021/08/31 05:00:02;;;;;;;12.88;8.40;;;;;;;;;;4960862;28;20101;-69
2021/08/31 05:02:31;;;;;;;13.45;9.07;;;;;;;;;;4959460;28;20082;-73
2021/08/31 05:04:57;;;;;;;11.02;9.88;;;;;;;;;;4963437;28;20496;-62
2021/08/31 05:07:23;;;;;;;12.10;10.18;;;;;;;;;;4960068;28;20028;-73
2021/08/31 05:09:49;;;;;;;11.88;10.20;;;;;;;;;;4963524;28;20028;-66
2021/08/31 05:12:15;;;;;;;12.13;10.65;;;;;;;;;;4963629;28;20035;-71
2021/08/31 05:14:41;;;;;;;12.20;10.27;;;;;;;;;;4963762;28;20098;-70
2021/08/31 05:17:07;;;;;;;11.27;9.00;;;;;;;;;;4964475;28;20059;-61
2021/08/31 05:19:33;;;;;;;11.57;10.20;;;;;;;;;;4972086;28;20504;-62
2021/08/31 05:22:00;;;;;;;15.10;10.18;;;;;;;;;;4972933;28;20058;-62
2021/08/31 05:24:28;;;;;;;13.68;9.77;;;;;;;;;;4972380;28;20539;-62
2021/08/31 05:26:54;;;;;;;14.25;10.45;;;;;;;;;;4972721;28;20027;-66
2021/08/31 05:32:13;;;;;;;11.73;10.25;;;;;;;;;;4971794;28;20046;-73
2021/08/31 05:34:45;;;;;;;11.23;10.00;;;;;;;;;;4975651;28;20026;-74
2021/08/31 05:37:17;;;;;;;13.10;9.60;;;;;;;;;;4979348;28;20030;-77
2021/08/31 05:39:59;;;;;;;13.40;9.98;;;;;;;;;;4961055;28;20479;-72
2021/08/31 05:42:28;;;;;;;12.48;10.52;;;;;;;;;;4971646;28;20027;-70
2021/08/31 05:44:57;;;;;;;14.70;9.75;;;;;;;;;;4936141;29;20042;-69
2021/08/31 05:47:32;;;;;;;11.95;10.13;;;;;;;;;;4937202;29;20504;-69
2021/08/31 05:50:01;;;;;;;12.68;10.05;;;;;;;;;;4925000;29;20060;-70
2021/08/31 05:52:27;;;;;;;12.30;9.50;;;;;;;;;;4930620;29;20080;-71
2021/08/31 05:54:53;;;;;;;13.43;9.23;;;;;;;;;;4947478;29;20040;-72
2021/08/31 05:57:19;;;;;;;15.45;10.05;;;;;;;;;;4944056;29;20481;-68
2021/08/31 05:59:45;;;;;;;8.88;8.05;;;;;;;;;;4939570;29;20741;-76
2021/08/31 06:02:30;;;;;;;9.05;8.15;;;;;;;;;;4932110;29;20036;-71
2021/08/31 06:08:00;;;;;;;13.90;9.88;;;;;;;;;;4947815;29;20573;-72
2021/08/31 06:10:29;;;;;;;10.75;8.60;;;;;;;;;;4978185;28;20408;-73
2021/08/31 06:13:00;;;;;;;13.65;9.60;;;;;;;;;;4984282;28;20027;-71
2021/08/31 06:15:26;;;;;;;12.80;9.73;;;;;;;;;;4966830;28;20050;-68
2021/08/31 06:17:54;;;;;;;14.57;9.75;;;;;;;;;;4976740;28;20109;-64
2021/08/31 06:20:20;;;;;;;13.50;10.40;;;;;;;;;;4976003;28;20034;-68
2021/08/31 06:22:46;;;;;;;11.85;9.25;;;;;;;;;;4974781;28;20059;-66
2021/08/31 06:25:13;;;;;;;10.63;9.48;;;;;;;;;;4986660;28;20019;-75
2021/08/31 06:27:49;;;;;;;13.40;11.27;;;;;;;;;;4977221;28;20102;-74
2021/08/31 06:30:34;;;;;;;11.00;9.90;;;;;;;;;;4933686;29;20070;-63
2021/08/31 06:33:00;;;;;;;13.25;9.65;;;;;;;;;;4934328;29;20517;-69
2021/08/31 06:35:26;;;;;;;10.88;9.13;;;;;;;;;;4916873;29;20043;-64
2021/08/31 06:37:52;;;;;;;11.73;8.57;;;;;;;;;;4934909;29;20039;-63
2021/08/31 06:40:18;;;;;;;8.75;7.78;;;;;;;;;;4934881;29;20047;-69
2021/08/31 06:42:44;;;;;;;9.77;8.00;;;;;;;;;;4934917;29;20126;-69
2021/08/31 06:45:11;;;;;;;10.27;9.02;;;;;;;;;;4934939;29;20885;-72
2021/08/31 06:48:12;;;;;;;13.35;9.70;;;;;;;;;;4937376;29;20039;-71
2021/08/31 06:51:19;;;;;;;15.52;10.88;;;;;;;;;;4937528;29;20050;-73
2021/08/31 06:54:00;;;;;;;10.98;9.02;;;;;;;;;;4879977;29;20057;-75
2021/08/31 06:56:26;;;;;;;8.50;7.70;;;;;;;;;;4861041;29;20033;-64
2021/08/31 06:58:52;;;;;;;9.55;8.57;;;;;;;;;;4858504;29;20050;-66
2021/08/31 07:01:19;;;;;;;9.35;8.35;;;;;;;;;;4847376;29;20547;-69
2021/08/31 07:03:45;;;;;;;10.27;8.73;;;;;;;;;;4859090;29;20103;-66
2021/08/31 07:06:11;;;;;;;11.75;9.40;;;;;;;;;;4847411;29;20030;-70
2021/08/31 07:08:37;;;;;;;10.98;9.05;;;;;;;;;;4873309;29;20029;-70
2021/08/31 07:11:03;;;;;;;11.40;10.07;;;;;;;;;;4878175;29;20045;-69
2021/08/31 07:13:29;;;;;;;12.23;9.95;;;;;;;;;;4876487;29;20221;-66
2021/08/31 07:15:55;;;;;;;10.52;9.00;;;;;;;;;;4877200;29;20061;-65
2021/08/31 07:18:21;;;;;;;14.32;9.48;;;;;;;;;;4895237;29;20048;-72
2021/08/31 07:20:49;;;;;;;14.63;11.48;;;;;;;;;;4881939;29;20029;-73
2021/08/31 07:23:18;;;;;;;11.82;10.60;;;;;;;;;;4883336;29;20520;-76
2021/08/31 07:25:48;;;;;;;12.25;10.70;;;;;;;;;;4888782;29;20180;-68
2021/08/31 07:28:22;;;;;;;11.05;10.00;;;;;;;;;;4921164;29;20056;-70
2021/08/31 07:31:21;;;;;;;10.80;8.82;;;;;;;;;;4930485;28;20039;-74
2021/08/31 07:34:00;;;;;;;10.45;8.68;;;;;;;;;;4972122;28;20050;-70
2021/08/31 07:36:26;;;;;;;9.20;7.88;;;;;;;;;;4959515;28;20110;-75
2021/08/31 07:38:55;;;;;;;9.40;8.05;;;;;;;;;;4980752;28;20031;-75
2021/08/31 07:41:22;;;;;;;9.98;8.98;;;;;;;;;;4978248;28;20023;-74
2021/08/31 07:43:48;;;;;;;9.25;7.10;;;;;;;;;;4959125;28;20150;-75
2021/08/31 07:46:17;;;;;;;10.23;8.45;;;;;;;;;;4974836;28;20031;-74
2021/08/31 07:48:48;;;;;;;7.75;6.85;;;;;;;;;;4976921;28;20022;-73
2021/08/31 07:51:17;;;;;;;8.85;7.75;;;;;;;;;;4953222;28;20035;-71
2021/08/31 07:53:43;;;;;;;8.60;6.80;;;;;;;;;;4976747;28;20034;-72
2021/08/31 07:56:12;;;;;;;7.72;6.70;;;;;;;;;;4980359;28;20050;-74
2021/08/31 07:58:38;;;;;;;7.95;6.85;;;;;;;;;;4968325;28;20039;-68
2021/08/31 08:01:04;;;;;;;8.90;6.50;;;;;;;;;;4962531;28;20024;-69
2021/08/31 08:03:31;;;;;;;7.03;5.63;;;;;;;;;;4967043;28;20081;-67
2021/08/31 08:05:57;;;;;;;9.63;5.80;;;;;;;;;;4963469;28;20051;-68
2021/08/31 08:08:23;;;;;;;9.23;5.78;;;;;;;;;;4965947;28;20037;-68
2021/08/31 08:10:51;;;;;;;7.63;5.60;;;;;;;;;;4963343;28;20027;-67
2021/08/31 08:13:17;;;;;;;6.22;5.43;;;;;;;;;;4964103;28;20026;-68
2021/08/31 08:15:43;;;;;;;8.30;6.07;;;;;;;;;;4966781;28;20035;-67
2021/08/31 08:18:09;;;;;;;6.45;5.05;;;;;;;;;;4981710;28;20098;-67
2021/08/31 08:20:35;;;;;;;6.70;5.72;;;;;;;;;;4972589;28;20090;-69
2021/08/31 08:23:07;;;;;;;7.43;6.00;;;;;;;;;;4976853;28;20053;-78
2021/08/31 08:25:33;;;;;;;7.00;6.13;;;;;;;;;;4962806;28;20038;-73
2021/08/31 08:27:59;;;;;;;9.43;6.78;;;;;;;;;;4987042;28;20094;-71
2021/08/31 08:31:04;;;;;;;12.48;6.30;;;;;;;;;;4979737;28;20031;-73
2021/08/31 08:33:33;;;;;;;7.30;5.88;;;;;;;;;;4975638;28;20043;-74
2021/08/31 08:36:05;;;;;;;10.70;5.43;;;;;;;;;;4976503;28;20046;-72
2021/08/31 08:38:31;;;;;;;9.88;5.30;;;;;;;;;;4974868;28;20061;-73
2021/08/31 08:41:00;;;;;;;9.73;4.97;;;;;;;;;;4972736;28;20169;-74
2021/08/31 08:43:32;;;;;;;6.47;5.15;;;;;;;;;;4976363;28;20065;-73
2021/08/31 08:46:01;;;;;;;6.88;4.30;;;;;;;;;;4978614;28;20051;-75
2021/08/31 08:48:27;;;;;;;8.05;5.18;;;;;;;;;;4973800;28;20118;-78
2021/08/31 08:50:57;;;;;;;13.65;5.40;;;;;;;;;;4974650;28;20109;-77
2021/08/31 08:53:25;;;;;;;15.13;5.15;;;;;;;;;;4972492;28;20093;-75
2021/08/31 08:55:58;;;;;;;11.43;4.93;;;;;;;;;;4974248;28;20023;-75
2021/08/31 08:58:30;;;;;;;8.93;4.55;;;;;;;;;;4959969;28;20050;-74
2021/08/31 09:01:07;;;;;;;6.63;4.15;;;;;;;;;;4976548;28;20110;-74
2021/08/31 09:03:34;;;;;;;9.85;4.55;;;;;;;;;;4974730;28;20031;-74
2021/08/31 09:06:06;;;;;;;13.70;6.05;;;;;;;;;;4973665;28;20019;-73
2021/08/31 09:08:32;;;;;;;14.25;5.90;;;;;;;;;;4947378;28;20081;-73
2021/08/31 09:11:20;;;;;;;7.03;5.55;;;;;;;;;;4957803;28;20380;-75
2021/08/31 09:16:40;;;;;;;6.13;4.20;;;;;;;;;;4973448;28;20177;-76
2021/08/31 09:19:11;;;;;;;6.10;4.35;;;;;;;;;;4982472;28;20063;-77
2021/08/31 09:25:11;;;;;;;7.38;5.07;;;;;;;;;;4979155;28;20061;-82
2021/08/31 09:27:38;;;;;;;5.80;3.75;;;;;;;;;;4977697;28;20034;-77
2021/08/31 09:30:21;;;;;;;5.18;3.90;;;;;;;;;;4977166;28;20042;-73
2021/08/31 09:33:07;;;;;;;8.23;4.60;;;;;;;;;;4975829;28;20035;-71
2021/08/31 09:35:34;;;;;;;4.68;4.20;;;;;;;;;;4972193;28;20027;-76
2021/08/31 09:38:07;;;;;;;9.38;4.88;;;;;;;;;;4978343;28;20030;-75
2021/08/31 09:40:37;;;;;;;5.75;3.90;;;;;;;;;;4978382;28;20034;-77
2021/08/31 09:43:05;;;;;;;7.55;4.30;;;;;;;;;;4977730;28;20110;-79
2021/08/31 09:45:35;;;;;;;4.63;3.97;;;;;;;;;;4976580;28;20252;-73
2021/08/31 09:48:04;;;;;;;6.47;4.10;;;;;;;;;;4976840;28;20022;-70
2021/08/31 09:50:49;;;;;;;7.47;3.85;;;;;;;;;;4983663;28;20034;-80
2021/08/31 09:53:19;;;;;;;6.32;4.22;;;;;;;;;;4984184;28;20035;-74
2021/08/31 09:55:50;;;;;;;7.50;4.50;;;;;;;;;;4976244;28;20027;-73
2021/08/31 09:58:26;;;;;;;5.53;4.10;;;;;;;;;;4975841;28;20365;-71
2021/08/31 10:00:53;;;;;;;7.93;4.47;;;;;;;;;;4976129;28;20034;-74
2021/08/31 10:03:35;;;;;;;;;;;;;;;;;;;;;
2021/08/31 10:06:03;;;;;;;5.13;4.17;;;;;;;;;;4975311;28;20021;-73
2021/08/31 10:08:33;;;;;;;5.93;4.53;;;;;;;;;;4961696;28;20031;-73
2021/08/31 10:11:01;;;;;;;4.07;3.67;;;;;;;;;;4958642;28;20038;-74
2021/08/31 10:13:27;;;;;;;6.53;4.30;;;;;;;;;;4974495;28;20119;-68
2021/08/31 10:15:57;;;;;;;7.38;4.18;;;;;;;;;;4971683;28;20029;-66
2021/08/31 10:18:25;;;;;;;4.72;4.20;;;;;;;;;;4975961;28;20031;-65
2021/08/31 10:21:07;;;;;;;5.45;4.00;;;;;;;;;;4975410;28;20026;-67
2021/08/31 10:23:37;;;;;;;4.93;4.20;;;;;;;;;;4973056;28;20043;-68
2021/08/31 10:26:22;;;;;;;9.50;4.82;;;;;;;;;;4974613;28;20493;-65
2021/08/31 10:28:48;;;;;;;14.35;5.85;;;;;;;;;;4975573;28;20126;-65
2021/08/31 10:31:27;;;;;;;5.68;4.13;;;;;;;;;;4973272;28;20034;-68
2021/08/31 10:33:54;;;;;;;4.55;3.83;;;;;;;;;;4969870;28;20440;-80
2021/08/31 10:36:34;;;;;;;5.07;3.60;;;;;;;;;;4973745;28;20030;-74
2021/08/31 10:39:00;;;;;;;5.50;4.07;;;;;;;;;;4974419;28;20034;-74
2021/08/31 10:41:47;;;;;;;5.80;4.00;;;;;;;;;;4974913;28;20029;-74
2021/08/31 10:44:33;;;;;;;7.53;4.07;;;;;;;;;;4975465;28;20058;-84
2021/08/31 10:47:08;;;;;;;13.60;5.35;;;;;;;;;;4962923;28;20031;-78
2021/08/31 10:50:08;;;;;;;9.05;4.38;;;;;;;;;;4980766;28;20034;-84
2021/08/31 10:52:35;;;;;;;5.70;4.30;;;;;;;;;;4952863;28;20043;-87
2021/08/31 10:55:01;;;;;;;5.18;4.10;;;;;;;;;;4975091;28;20023;-68
2021/08/31 10:57:36;;;;;;;4.45;3.60;;;;;;;;;;4972276;28;20058;-71
2021/08/31 11:03:10;;;;;;;6.00;4.38;;;;;;;;;;4912550;29;20143;-69
2021/08/31 11:05:39;;;;;;;7.55;4.43;;;;;;;;;;4925188;29;20036;-71
2021/08/31 11:08:05;;;;;;;6.20;4.10;;;;;;;;;;4917975;29;20083;-77
2021/08/31 11:10:46;;;;;;;6.18;4.18;;;;;;;;;;4923254;29;20052;-74
2021/08/31 11:13:13;;;;;;;5.13;3.95;;;;;;;;;;4899159;29;20024;-71
2021/08/31 11:15:40;;;;;;;5.90;4.45;;;;;;;;;;4909708;29;20064;-70
2021/08/31 11:18:10;;;;;;;9.60;4.78;;;;;;;;;;4913907;29;20044;-71
2021/08/31 11:20:37;;;;;;;5.75;4.50;;;;;;;;;;4914776;29;20040;-72
2021/08/31 11:23:03;;;;;;;6.38;4.30;;;;;;;;;;4914901;29;20054;-69
2021/08/31 11:25:39;;;;;;;5.13;4.03;;;;;;;;;;4914848;29;20032;-72
2021/08/31 11:28:08;;;;;;;5.97;4.28;;;;;;;;;;4913735;29;20602;-76
2021/08/31 11:33:43;;;;;;;5.20;4.57;;;;;;;;;;4890001;29;20574;-77
2021/08/31 11:36:12;;;;;;;5.65;4.45;;;;;;;;;;4915667;29;20043;-82
2021/08/31 11:38:54;;;;;;;7.15;4.60;;;;;;;;;;4915761;29;20552;-75
2021/08/31 11:41:25;;;;;;;7.78;4.00;;;;;;;;;;4946608;28;20050;-75
2021/08/31 11:43:53;;;;;;;5.18;4.65;;;;;;;;;;4973748;28;20027;-81
2021/08/31 11:46:32;;;;;;;7.95;5.22;;;;;;;;;;4969833;28;20062;-76
2021/08/31 11:49:25;;;;;;;8.05;4.45;;;;;;;;;;4958709;28;20023;-72
2021/08/31 11:52:06;;;;;;;5.00;4.50;;;;;;;;;;4971579;28;20077;-72
2021/08/31 11:54:33;;;;;;;8.25;4.70;;;;;;;;;;4972650;28;20026;-73
2021/08/31 11:57:01;;;;;;;6.32;4.10;;;;;;;;;;4972532;28;20074;-73
2021/08/31 11:59:36;;;;;;;6.43;4.15;;;;;;;;;;4973133;28;20489;-74
2021/08/31 12:02:21;;;;;;;6.03;4.60;;;;;;;;;;4973068;28;20038;-72
2021/08/31 12:05:00;;;;;;;4.93;4.40;;;;;;;;;;4972447;28;20030;-70
2021/08/31 12:07:34;;;;;;;5.78;4.53;;;;;;;;;;4971491;28;20110;-75
2021/08/31 12:10:01;;;;;;;7.32;4.40;;;;;;;;;;4959832;28;20023;-85
2021/08/31 12:12:35;;;;;;;4.90;4.15;;;;;;;;;;4955593;28;20042;-86
2021/08/31 12:15:03;;;;;;;5.63;4.57;;;;;;;;;;4954892;28;20456;-83
2021/08/31 12:17:43;;;;;;;8.02;4.53;;;;;;;;;;4968475;28;20473;-73
2021/08/31 12:20:27;;;;;;;6.30;4.53;;;;;;;;;;4973458;28;20038;-73
2021/08/31 12:23:01;;;;;;;5.93;4.28;;;;;;;;;;4968828;28;20476;-74
2021/08/31 12:25:31;;;;;;;5.95;4.40;;;;;;;;;;4972359;28;20042;-72
2021/08/31 12:28:08;;;;;;;5.03;3.90;;;;;;;;;;4973187;28;20027;-71
2021/08/31 12:30:36;;;;;;;6.43;4.10;;;;;;;;;;4973778;28;20082;-73
2021/08/31 12:33:02;;;;;;;4.60;4.10;;;;;;;;;;4971610;28;20087;-78
2021/08/31 12:38:14;;;;;;;5.25;3.90;;;;;;;;;;4968366;28;20060;-85
2021/08/31 12:41:37;;;;;;;6.57;4.53;;;;;;;;;;4972626;28;20038;-68
2021/08/31 12:44:04;;;;;;;6.28;4.00;;;;;;;;;;4960770;28;20070;-69
2021/08/31 12:46:34;;;;;;;6.32;4.22;;;;;;;;;;4968826;28;20039;-69
2021/08/31 12:49:01;;;;;;;5.43;4.18;;;;;;;;;;4972899;28;20500;-70
2021/08/31 12:51:32;;;;;;;4.32;3.88;;;;;;;;;;4972989;28;20481;-70
2021/08/31 12:53:58;;;;;;;4.22;3.53;;;;;;;;;;4972509;28;20034;-66
2021/08/31 12:56:24;;;;;;;7.28;3.83;;;;;;;;;;4973018;28;20484;-68
2021/08/31 12:59:00;;;;;;;4.50;3.50;;;;;;;;;;4975150;28;20492;-67
2021/08/31 13:01:27;;;;;;;4.47;3.80;;;;;;;;;;4976569;28;20553;-68
2021/08/31 13:03:53;;;;;;;4.05;3.50;;;;;;;;;;4977067;28;20073;-67
2021/08/31 13:06:53;;;;;;;3.75;3.25;;;;;;;;;;4976887;28;20038;-70
2021/08/31 13:09:20;;;;;;;3.97;3.00;;;;;;;;;;4929325;29;20044;-69
2021/08/31 13:11:50;;;;;;;5.90;2.75;;;;;;;;;;4918649;29;20103;-68
2021/08/31 13:14:17;;;;;;;4.80;2.90;;;;;;;;;;4917507;29;20048;-70
2021/08/31 13:16:44;;;;;;;3.03;2.55;;;;;;;;;;4913524;29;20036;-66
2021/08/31 13:19:10;;;;;;;6.30;2.40;;;;;;;;;;4916457;29;20544;-69
2021/08/31 13:21:37;;;;;;;3.83;2.50;;;;;;;;;;4916864;29;20032;-70
2021/08/31 13:24:03;;;;;;;7.93;2.58;;;;;;;;;;4915732;29;20123;-67
2021/08/31 13:26:29;;;;;;;2.63;2.28;;;;;;;;;;4915479;29;20119;-68
2021/08/31 13:29:57;;;;;;;6.40;2.40;;;;;;;;;;4916822;29;20036;-73
2021/08/31 13:32:32;;;;;;;5.50;2.40;;;;;;;;;;4911737;29;20040;-75
2021/08/31 13:34:58;;;;;;;2.85;2.30;;;;;;;;;;4916726;29;20032;-75
2021/08/31 13:37:34;;;;;;;3.70;2.50;;;;;;;;;;4915402;29;20512;-70
2021/08/31 13:40:00;;;;;;;5.65;2.70;;;;;;;;;;4916000;29;20059;-73
2021/08/31 13:42:26;;;;;;;4.20;2.50;;;;;;;;;;4915707;29;20484;-73
2021/08/31 13:44:52;;;;;;;2.30;2.10;;;;;;;;;;4927315;28;20049;-73
2021/08/31 13:47:19;;;;;;;3.78;2.40;;;;;;;;;;4968129;28;20046;-74
2021/08/31 13:49:47;;;;;;;8.30;2.70;;;;;;;;;;4974368;28;20023;-72
2021/08/31 13:52:13;;;;;;;2.75;2.20;;;;;;;;;;4973670;28;20059;-79
2021/08/31 13:54:39;;;;;;;2.47;2.28;;;;;;;;;;4970434;28;20031;-73
2021/08/31 13:57:05;;;;;;;3.92;2.42;;;;;;;;;;4956036;28;20473;-77
2021/08/31 13:59:32;;;;;;;11.05;2.55;;;;;;;;;;4970021;28;20035;-73
2021/08/31 14:01:58;;;;;;;4.20;2.42;;;;;;;;;;4971944;28;20082;-70
2021/08/31 14:04:24;;;;;;;2.65;2.20;;;;;;;;;;4971297;28;20530;-72
2021/08/31 14:06:50;;;;;;;9.05;2.60;;;;;;;;;;4969392;28;20476;-69
2021/08/31 14:09:16;;;;;;;5.55;2.50;;;;;;;;;;4966765;28;20036;-74
2021/08/31 14:11:42;;;;;;;4.15;2.10;;;;;;;;;;4945965;28;20022;-75
2021/08/31 14:14:20;;;;;;;2.72;2.35;;;;;;;;;;4952340;28;20114;-79
2021/08/31 14:16:46;;;;;;;3.40;2.50;;;;;;;;;;4956079;28;20031;-82
2021/08/31 14:19:12;;;;;;;4.28;2.40;;;;;;;;;;4952315;28;20603;-68
2021/08/31 14:21:39;;;;;;;3.30;2.42;;;;;;;;;;4965224;28;20022;-73
2021/08/31 14:24:05;;;;;;;3.40;2.33;;;;;;;;;;4974606;28;20047;-73
2021/08/31 14:26:31;;;;;;;6.03;2.80;;;;;;;;;;4975423;28;20433;-68
2021/08/31 14:29:02;;;;;;;6.60;2.90;;;;;;;;;;4975167;28;20506;-69
2021/08/31 14:31:56;;;;;;;4.80;2.60;;;;;;;;;;4962454;28;20027;-69
2021/08/31 14:34:28;;;;;;;4.35;2.40;;;;;;;;;;4973309;28;20026;-71
2021/08/31 14:36:54;;;;;;;3.20;2.20;;;;;;;;;;4957088;28;20070;-73
2021/08/31 14:39:22;;;;;;;3.65;2.22;;;;;;;;;;4970555;28;20049;-72
2021/08/31 14:41:54;;;;;;;3.80;2.10;;;;;;;;;;4961182;28;20027;-89
2021/08/31 14:44:26;;;;;;;3.72;2.10;;;;;;;;;;4955169;28;20027;-72
2021/08/31 14:47:00;;;;;;;4.68;2.40;;;;;;;;;;4950320;28;20035;-75
2021/08/31 14:49:29;;;;;;;3.45;2.10;;;;;;;;;;4941957;28;20046;-76
2021/08/31 14:51:55;;;;;;;6.05;2.40;;;;;;;;;;4955931;28;20035;-70
2021/08/31 14:54:36;;;;;;;3.60;2.00;;;;;;;;;;4947855;28;20035;-69
2021/08/31 14:57:16;;;;;;;1.80;1.70;;;;;;;;;;4954101;28;20047;-69
2021/08/31 14:59:42;;;;;;;5.22;2.40;;;;;;;;;;4970479;28;20393;-68
2021/08/31 15:02:15;;;;;;;3.13;2.38;;;;;;;;;;4972035;28;20055;-74
2021/08/31 15:04:41;;;;;;;3.25;2.00;;;;;;;;;;4955123;28;20488;-73
2021/08/31 15:07:07;;;;;;;2.65;2.00;;;;;;;;;;4959236;28;20050;-74
2021/08/31 15:09:41;;;;;;;2.28;1.95;;;;;;;;;;4974615;28;20041;-73
2021/08/31 15:12:07;;;;;;;5.70;2.50;;;;;;;;;;4973062;28;20418;-67
2021/08/31 15:14:33;;;;;;;3.90;2.10;;;;;;;;;;4974384;28;20037;-66
2021/08/31 15:16:59;;;;;;;3.25;1.73;;;;;;;;;;4973840;28;20061;-68